METAR Data
IDs: Format: Raw Decoded Include TAF

Data at: 1807 UTC 03 Jul 2020

METAR for:KCVG (Cincinnati Intl, KY, US)
Text:KCVG 031752Z 04005KT 9SM SCT075 SCT150 BKN250 32/17 A3003 RMK AO2 SLP156 T03170167 10322 20233 58007
Temperature: 31.7°C ( 89°F)
Dewpoint: 16.7°C ( 62°F) [RH = 41%]
Pressure (altimeter):30.03 inches Hg (1017.0 mb) [Sea level pressure: 1015.6 mb]
Winds:from the NE (40 degrees) at 6 MPH (5 knots; 2.6 m/s)
Visibility: 9 sm ( 14 km)
Ceiling:25000 feet AGL
Clouds: scattered clouds at 7500 feet AGL, scattered clouds at 15000 feet AGL, broken clouds at 25000 feet AGL